Back to Top

Language: 

My Weather Underground Personal Weather Station Historical Data with Graphs...

Delerius Weather Station Historical Data
 
Daily Summary for May 27, 2018 Units:  English    Metric   Both
« Previous Day
Next Day »
Daily Weekly Monthly Yearly Custom
  Current: High: Low: Average:
Temperature: 75.9 °F 76.3 °F 51.1 °F 60.2 °F
Dew Point: 55.9 °F 59.4 °F 48.5 °F 53.1 °F
Humidity: 50 % 93 % 50 % 80 %
Wind Speed: 10.0 mph 10.0 mph 0.0 mph 4.8 mph
Wind Gust: 19.0 mph 20.0 mph - -
Wind:ENE - - SSE
Pressure: 30.05 in 30.21 in 30.05 in -
Precipitation: 0.00 in      
Historical Graphs
 
 
Tabular Data for May 27, 2018
Time Temperature Dew Point Pressure Wind Wind Speed Wind Gust Humidity Rainfall Rate (Hourly) solar Conditions
00:04 53.4 °F 50.0 °F 30.21 in NNE 6.0 mph 10.0 mph 88 % 0.00 in 0 W/m2
00:09 53.2 °F 50.1 °F 30.21 in NNE 4.0 mph 8.0 mph 89 % 0.00 in 0 W/m2
00:14 53.1 °F 49.9 °F 30.21 in NNE 5.0 mph 10.0 mph 89 % 0.00 in 0 W/m2
00:19 53.1 °F 49.9 °F 30.21 in NE 5.0 mph 7.0 mph 89 % 0.00 in 0 W/m2
00:24 52.9 °F 49.7 °F 30.20 in NNE 6.0 mph 10.0 mph 89 % 0.00 in 0 W/m2
00:29 52.7 °F 49.5 °F 30.20 in NNE 4.0 mph 10.0 mph 89 % 0.00 in 0 W/m2
00:34 52.5 °F 49.7 °F 30.20 in NNE 7.0 mph 12.0 mph 90 % 0.00 in 0 W/m2
00:39 52.3 °F 49.5 °F 30.20 in NNE 4.0 mph 9.0 mph 90 % 0.00 in 0 W/m2
00:44 52.3 °F 49.5 °F 30.20 in NNE 5.0 mph 10.0 mph 90 % 0.00 in 0 W/m2
00:49 52.2 °F 49.3 °F 30.20 in NNE 3.0 mph 10.0 mph 90 % 0.00 in 0 W/m2
00:54 52.2 °F 49.3 °F 30.20 in North 4.0 mph 10.0 mph 90 % 0.00 in 0 W/m2
00:59 52.0 °F 49.4 °F 30.20 in NNE 3.0 mph 8.0 mph 91 % 0.00 in 0 W/m2
01:04 52.0 °F 49.4 °F 30.20 in NE 3.0 mph 8.0 mph 91 % 0.00 in 0 W/m2
01:09 51.8 °F 49.3 °F 30.20 in NNE 4.0 mph 8.0 mph 91 % 0.00 in 0 W/m2
01:14 51.8 °F 49.3 °F 30.20 in North 5.0 mph 9.0 mph 91 % 0.00 in 0 W/m2
01:19 51.6 °F 49.1 °F 30.20 in North 3.0 mph 8.0 mph 91 % 0.00 in 0 W/m2
01:24 51.6 °F 49.1 °F 30.19 in North 3.0 mph 9.0 mph 91 % 0.00 in 0 W/m2
01:29 51.6 °F 49.1 °F 30.20 in North 4.0 mph 8.0 mph 91 % 0.00 in 0 W/m2
01:34 51.6 °F 49.1 °F 30.20 in North 1.0 mph 7.0 mph 91 % 0.00 in 0 W/m2
01:39 51.4 °F 48.9 °F 30.20 in NNE 1.0 mph 4.0 mph 91 % 0.00 in 0 W/m2
01:44 51.4 °F 49.2 °F 30.20 in NNW 3.0 mph 7.0 mph 92 % 0.00 in 0 W/m2
01:49 51.4 °F 48.9 °F 30.20 in North 2.0 mph 8.0 mph 91 % 0.00 in 0 W/m2
01:54 51.4 °F 49.2 °F 30.19 in NNE 2.0 mph 6.0 mph 92 % 0.00 in 0 W/m2
01:59 51.3 °F 49.0 °F 30.19 in North 3.0 mph 7.0 mph 92 % 0.00 in 0 W/m2
02:04 51.3 °F 49.0 °F 30.19 in North 3.0 mph 7.0 mph 92 % 0.00 in 0 W/m2
02:09 51.3 °F 49.0 °F 30.18 in North 4.0 mph 10.0 mph 92 % 0.00 in 0 W/m2
02:14 51.1 °F 48.8 °F 30.18 in NNW 5.0 mph 9.0 mph 92 % 0.00 in 0 W/m2
02:19 51.1 °F 48.8 °F 30.18 in NNW 3.0 mph 7.0 mph 92 % 0.00 in 0 W/m2
02:24 51.1 °F 48.8 °F 30.18 in NNW 5.0 mph 8.0 mph 92 % 0.00 in 0 W/m2
02:29 51.1 °F 48.8 °F 30.17 in NNW 3.0 mph 8.0 mph 92 % 0.00 in 0 W/m2
02:34 51.1 °F 48.8 °F 30.18 in NNW 3.0 mph 7.0 mph 92 % 0.00 in 0 W/m2
02:39 51.1 °F 48.8 °F 30.18 in North 2.0 mph 6.0 mph 92 % 0.00 in 0 W/m2
02:44 51.1 °F 48.8 °F 30.18 in NNW 5.0 mph 8.0 mph 92 % 0.00 in 0 W/m2
02:49 51.1 °F 48.8 °F 30.18 in NNW 2.0 mph 6.0 mph 92 % 0.00 in 0 W/m2
02:54 51.1 °F 48.8 °F 30.18 in NW 3.0 mph 7.0 mph 92 % 0.00 in 0 W/m2
02:59 51.1 °F 48.8 °F 30.17 in NW 3.0 mph 6.0 mph 92 % 0.00 in 0 W/m2
03:04 51.3 °F 49.0 °F 30.17 in NW 2.0 mph 5.0 mph 92 % 0.00 in 0 W/m2
03:09 51.3 °F 49.0 °F 30.17 in NNW 4.0 mph 9.0 mph 92 % 0.00 in 0 W/m2
03:14 51.3 °F 49.0 °F 30.17 in NNW 3.0 mph 7.0 mph 92 % 0.00 in 0 W/m2
03:19 51.3 °F 49.0 °F 30.17 in NW 4.0 mph 8.0 mph 92 % 0.00 in 0 W/m2
03:24 51.3 °F 49.0 °F 30.16 in NW 3.0 mph 8.0 mph 92 % 0.00 in 0 W/m2
03:30 51.3 °F 49.0 °F 30.16 in NW 3.0 mph 6.0 mph 92 % 0.00 in 0 W/m2
03:35 51.1 °F 48.5 °F 30.16 in NNW 4.0 mph 8.0 mph 91 % 0.00 in 0 W/m2
03:40 51.1 °F 48.8 °F 30.16 in NNW 3.0 mph 7.0 mph 92 % 0.00 in 0 W/m2
03:45 51.1 °F 48.8 °F 30.16 in NNW 4.0 mph 8.0 mph 92 % 0.00 in 0 W/m2
03:50 51.1 °F 48.8 °F 30.16 in NW 5.0 mph 9.0 mph 92 % 0.00 in 0 W/m2
03:55 51.3 °F 49.0 °F 30.17 in NW 2.0 mph 5.0 mph 92 % 0.00 in 0 W/m2
04:00 51.3 °F 49.0 °F 30.17 in WNW 2.0 mph 7.0 mph 92 % 0.00 in 0 W/m2
04:05 51.3 °F 48.7 °F 30.17 in Calm   5.0 mph 91 % 0.00 in 0 W/m2
04:10 51.3 °F 48.7 °F 30.17 in West 1.0 mph 4.0 mph 91 % 0.00 in 0 W/m2
04:15 51.4 °F 49.2 °F 30.17 in NW 2.0 mph 5.0 mph 92 % 0.00 in 0 W/m2
04:20 51.4 °F 49.2 °F 30.17 in NW 2.0 mph 8.0 mph 92 % 0.00 in 0 W/m2
04:25 51.6 °F 49.4 °F 30.17 in NW 2.0 mph 6.0 mph 92 % 0.00 in 0 W/m2
04:30 51.6 °F 49.1 °F 30.17 in NW 3.0 mph 6.0 mph 91 % 0.00 in 0 W/m2
04:35 51.8 °F 49.3 °F 30.17 in Calm     91 % 0.00 in 0 W/m2
04:40 51.8 °F 49.3 °F 30.17 in Calm     91 % 0.00 in 7 W/m2
04:45 51.8 °F 49.3 °F 30.17 in NW 1.0 mph 4.0 mph 91 % 0.00 in 9 W/m2
04:50 51.8 °F 49.3 °F 30.17 in Calm     91 % 0.00 in 11 W/m2
04:55 51.6 °F 49.1 °F 30.17 in Calm   1.0 mph 91 % 0.00 in 11 W/m2
05:00 51.6 °F 49.1 °F 30.16 in NW 1.0 mph 2.0 mph 91 % 0.00 in 12 W/m2
05:05 51.4 °F 48.9 °F 30.16 in NNW 1.0 mph 5.0 mph 91 % 0.00 in 16 W/m2
05:10 51.4 °F 48.9 °F 30.17 in WSW 4.0 mph 6.0 mph 91 % 0.00 in 18 W/m2
05:15 51.3 °F 48.7 °F 30.16 in West 4.0 mph 6.0 mph 91 % 0.00 in 23 W/m2
05:20 51.3 °F 48.7 °F 30.16 in NNW 1.0 mph 3.0 mph 91 % 0.00 in 26 W/m2
05:25 51.3 °F 49.0 °F 30.16 in NNW 1.0 mph 4.0 mph 92 % 0.00 in 33 W/m2
05:30 51.3 °F 49.0 °F 30.16 in NNW 1.0 mph 3.0 mph 92 % 0.00 in 33 W/m2
05:35 51.3 °F 49.0 °F 30.16 in Calm   1.0 mph 92 % 0.00 in 39 W/m2
05:40 51.4 °F 49.2 °F 30.16 in NNW 1.0 mph 4.0 mph 92 % 0.00 in 44 W/m2
05:45 51.4 °F 49.2 °F 30.15 in NNW 1.0 mph 3.0 mph 92 % 0.00 in 49 W/m2
05:50 51.6 °F 49.7 °F 30.15 in NW 2.0 mph 5.0 mph 93 % 0.00 in 54 W/m2
05:55 51.6 °F 49.4 °F 30.15 in Calm     92 % 0.00 in 58 W/m2
06:00 51.8 °F 49.8 °F 30.15 in NNW 2.0 mph 6.0 mph 93 % 0.00 in 70 W/m2
06:05 52.0 °F 50.0 °F 30.15 in NW 2.0 mph 7.0 mph 93 % 0.00 in 86 W/m2
06:10 52.3 °F 50.4 °F 30.15 in NW 1.0 mph 4.0 mph 93 % 0.00 in 81 W/m2
06:15 52.5 °F 50.6 °F 30.15 in NW 1.0 mph 4.0 mph 93 % 0.00 in 93 W/m2
06:20 52.9 °F 50.9 °F 30.15 in Calm   1.0 mph 93 % 0.00 in 84 W/m2
06:25 53.1 °F 51.1 °F 30.15 in NNW 2.0 mph 6.0 mph 93 % 0.00 in 86 W/m2
06:30 53.4 °F 51.4 °F 30.15 in NW 2.0 mph 6.0 mph 93 % 0.00 in 83 W/m2
06:35 53.6 °F 51.3 °F 30.14 in NNW 1.0 mph 5.0 mph 92 % 0.00 in 86 W/m2
06:40 54.0 °F 51.7 °F 30.14 in North 3.0 mph 9.0 mph 92 % 0.00 in 93 W/m2
06:45 54.1 °F 51.9 °F 30.13 in NNW 5.0 mph 9.0 mph 92 % 0.00 in 105 W/m2
06:50 54.1 °F 51.6 °F 30.13 in NNW 6.0 mph 10.0 mph 91 % 0.00 in 97 W/m2
06:55 54.3 °F 51.7 °F 30.13 in NNW 3.0 mph 7.0 mph 91 % 0.00 in 107 W/m2
07:00 54.7 °F 52.1 °F 30.13 in North 5.0 mph 10.0 mph 91 % 0.00 in 118 W/m2
07:05 54.9 °F 52.0 °F 30.13 in NNE 6.0 mph 9.0 mph 90 % 0.00 in 132 W/m2
07:10 55.0 °F 52.2 °F 30.13 in NNE 6.0 mph 11.0 mph 90 % 0.00 in 142 W/m2
07:15 55.2 °F 52.3 °F 30.12 in NNE 7.0 mph 11.0 mph 90 % 0.00 in 230 W/m2
07:20 55.6 °F 52.7 °F 30.12 in NNE 7.0 mph 14.0 mph 90 % 0.00 in 230 W/m2
07:25 55.9 °F 52.7 °F 30.11 in NNE 9.0 mph 16.0 mph 89 % 0.00 in 250 W/m2
07:30 56.3 °F 53.1 °F 30.11 in NNE 5.0 mph 11.0 mph 89 % 0.00 in 281 W/m2
07:35 56.7 °F 53.1 °F 30.11 in NNE 9.0 mph 13.0 mph 88 % 0.00 in 302 W/m2
07:40 56.8 °F 53.0 °F 30.11 in NNE 9.0 mph 16.0 mph 87 % 0.00 in 204 W/m2
07:45 57.0 °F 53.2 °F 30.11 in NE 8.0 mph 15.0 mph 87 % 0.00 in 287 W/m2
07:50 57.2 °F 53.4 °F 30.11 in NE 7.0 mph 12.0 mph 87 % 0.00 in 165 W/m2
07:55 57.4 °F 53.5 °F 30.12 in NNE 7.0 mph 12.0 mph 87 % 0.00 in 188 W/m2
08:01 57.4 °F 53.5 °F 30.12 in ENE 2.0 mph 6.0 mph 87 % 0.00 in 188 W/m2
08:06 57.7 °F 53.9 °F 30.12 in NNE 2.0 mph 8.0 mph 87 % 0.00 in 193 W/m2
08:11 57.9 °F 53.8 °F 30.12 in NNE 5.0 mph 9.0 mph 86 % 0.00 in 220 W/m2
08:16 58.3 °F 54.1 °F 30.13 in NNE 3.0 mph 8.0 mph 86 % 0.00 in 218 W/m2
08:21 58.5 °F 54.3 °F 30.13 in NW 3.0 mph 7.0 mph 86 % 0.00 in 271 W/m2
08:26 58.8 °F 54.6 °F 30.12 in West 1.0 mph 4.0 mph 86 % 0.00 in 439 W/m2
08:31 59.7 °F 55.5 °F 30.12 in North 1.0 mph 5.0 mph 86 % 0.00 in 475 W/m2
08:36 60.6 °F 55.8 °F 30.12 in Calm   4.0 mph 84 % 0.00 in 418 W/m2
08:41 61.3 °F 55.8 °F 30.12 in NE 6.0 mph 10.0 mph 82 % 0.00 in 285 W/m2
08:46 61.7 °F 55.8 °F 30.12 in NE 5.0 mph 9.0 mph 81 % 0.00 in 309 W/m2
08:51 62.1 °F 55.8 °F 30.11 in NNE 6.0 mph 12.0 mph 80 % 0.00 in 473 W/m2
08:56 62.4 °F 56.2 °F 30.11 in NE 5.0 mph 10.0 mph 80 % 0.00 in 485 W/m2
09:01 63.0 °F 56.3 °F 30.11 in ENE 5.0 mph 9.0 mph 79 % 0.00 in 503 W/m2
09:06 63.3 °F 56.3 °F 30.11 in ENE 4.0 mph 9.0 mph 78 % 0.00 in 512 W/m2
09:11 63.7 °F 56.7 °F 30.11 in NE 4.0 mph 8.0 mph 78 % 0.00 in 527 W/m2
09:16 64.0 °F 57.0 °F 30.11 in North 3.0 mph 8.0 mph 78 % 0.00 in 540 W/m2
09:21 64.6 °F 56.8 °F 30.11 in ENE 4.0 mph 10.0 mph 76 % 0.00 in 555 W/m2
09:26 64.9 °F 57.6 °F 30.10 in NNE 5.0 mph 9.0 mph 77 % 0.00 in 564 W/m2
09:31 65.3 °F 57.5 °F 30.10 in NE 6.0 mph 12.0 mph 76 % 0.00 in 589 W/m2
09:37 65.5 °F 57.7 °F 30.10 in NE 7.0 mph 11.0 mph 76 % 0.00 in 621 W/m2
09:42 65.5 °F 57.3 °F 30.10 in NE 8.0 mph 13.0 mph 75 % 0.00 in 264 W/m2
09:47 65.5 °F 57.7 °F 30.10 in ENE 5.0 mph 9.0 mph 76 % 0.00 in 334 W/m2
09:52 65.7 °F 57.9 °F 30.10 in NE 5.0 mph 10.0 mph 76 % 0.00 in 694 W/m2
09:57 66.4 °F 58.2 °F 30.10 in ENE 7.0 mph 12.0 mph 75 % 0.00 in 689 W/m2
10:02 66.9 °F 58.7 °F 30.10 in ENE 5.0 mph 11.0 mph 75 % 0.00 in 659 W/m2
10:07 67.6 °F 59.1 °F 30.10 in ENE 5.0 mph 9.0 mph 74 % 0.00 in 657 W/m2
10:12 68.4 °F 58.6 °F 30.10 in ENE 6.0 mph 10.0 mph 71 % 0.00 in 664 W/m2
10:17 68.7 °F 58.5 °F 30.10 in ENE 7.0 mph 10.0 mph 70 % 0.00 in 675 W/m2
10:22 69.1 °F 58.9 °F 30.10 in ENE 7.0 mph 14.0 mph 70 % 0.00 in 715 W/m2
10:27 69.3 °F 58.7 °F 30.10 in ENE 8.0 mph 13.0 mph 69 % 0.00 in 701 W/m2
10:32 69.4 °F 58.4 °F 30.10 in ENE 9.0 mph 13.0 mph 68 % 0.00 in 707 W/m2
10:37 70.0 °F 58.9 °F 30.10 in ENE 7.0 mph 14.0 mph 68 % 0.00 in 717 W/m2
10:42 70.3 °F 59.3 °F 30.10 in ENE 7.0 mph 15.0 mph 68 % 0.00 in 733 W/m2
10:47 70.9 °F 59.0 °F 30.10 in East 7.0 mph 11.0 mph 66 % 0.00 in 747 W/m2
10:52 71.1 °F 58.7 °F 30.09 in ENE 6.0 mph 10.0 mph 65 % 0.00 in 756 W/m2
10:57 71.4 °F 59.0 °F 30.10 in ENE 7.0 mph 11.0 mph 65 % 0.00 in 759 W/m2
11:02 71.8 °F 59.4 °F 30.09 in ENE 7.0 mph 18.0 mph 65 % 0.00 in 752 W/m2
11:07 71.8 °F 58.5 °F 30.09 in East 8.0 mph 13.0 mph 63 % 0.00 in 777 W/m2
11:12 71.8 °F 58.1 °F 30.09 in ENE 8.0 mph 16.0 mph 62 % 0.00 in 788 W/m2
11:13 71.8 °F 58.5 °F 30.09 in ENE 7.0 mph 12.0 mph 63 % 0.00 in 788 W/m2
11:18 71.8 °F 58.5 °F 30.09 in ENE 7.0 mph 12.0 mph 63 % 0.00 in 805 W/m2
11:23 72.1 °F 58.4 °F 30.08 in ENE 9.0 mph 18.0 mph 62 % 0.00 in 814 W/m2
11:28 72.1 °F 57.9 °F 30.09 in ENE 8.0 mph 15.0 mph 61 % 0.00 in 831 W/m2
11:33 72.0 °F 58.2 °F 30.09 in East 8.0 mph 15.0 mph 62 % 0.00 in 835 W/m2
11:38 72.3 °F 58.1 °F 30.08 in ENE 10.0 mph 18.0 mph 61 % 0.00 in 854 W/m2
11:43 72.5 °F 57.8 °F 30.08 in East 8.0 mph 16.0 mph 60 % 0.00 in 847 W/m2
11:48 73.0 °F 58.8 °F 30.08 in East 7.0 mph 11.0 mph 61 % 0.00 in 847 W/m2
11:53 73.2 °F 58.5 °F 30.08 in ENE 8.0 mph 14.0 mph 60 % 0.00 in 849 W/m2
11:58 73.6 °F 58.8 °F 30.08 in ENE 7.0 mph 12.0 mph 60 % 0.00 in 847 W/m2
12:03 73.9 °F 59.2 °F 30.08 in ENE 7.0 mph 14.0 mph 60 % 0.00 in 849 W/m2
12:08 74.1 °F 58.9 °F 30.08 in East 6.0 mph 12.0 mph 59 % 0.00 in 854 W/m2
12:13 73.9 °F 57.7 °F 30.07 in ENE 9.0 mph 15.0 mph 57 % 0.00 in 853 W/m2
12:18 74.1 °F 56.9 °F 30.07 in ENE 10.0 mph 18.0 mph 55 % 0.00 in 861 W/m2
12:23 73.9 °F 56.8 °F 30.07 in East 9.0 mph 16.0 mph 55 % 0.00 in 860 W/m2
12:28 74.3 °F 57.1 °F 30.07 in ENE 9.0 mph 15.0 mph 55 % 0.00 in 863 W/m2
12:33 73.9 °F 56.8 °F 30.07 in ENE 9.0 mph 18.0 mph 55 % 0.00 in 863 W/m2
12:38 74.1 °F 57.9 °F 30.07 in East 7.0 mph 13.0 mph 57 % 0.00 in 867 W/m2
12:43 74.1 °F 56.9 °F 30.07 in East 8.0 mph 18.0 mph 55 % 0.00 in 874 W/m2
12:49 74.7 °F 56.9 °F 30.07 in East 8.0 mph 14.0 mph 54 % 0.00 in 874 W/m2
12:54 74.8 °F 56.6 °F 30.07 in ENE 9.0 mph 19.0 mph 53 % 0.00 in 875 W/m2
12:59 75.0 °F 57.2 °F 30.06 in East 5.0 mph 13.0 mph 54 % 0.00 in 875 W/m2
13:04 75.4 °F 57.1 °F 30.06 in ENE 8.0 mph 13.0 mph 53 % 0.00 in 875 W/m2
13:09 75.6 °F 56.7 °F 30.06 in East 9.0 mph 15.0 mph 52 % 0.00 in 875 W/m2
13:14 75.4 °F 56.5 °F 30.06 in East 9.0 mph 15.0 mph 52 % 0.00 in 874 W/m2
13:19 75.2 °F 56.4 °F 30.06 in East 10.0 mph 14.0 mph 52 % 0.00 in 872 W/m2
13:24 75.2 °F 56.4 °F 30.06 in ENE 9.0 mph 16.0 mph 52 % 0.00 in 872 W/m2
13:29 75.6 °F 56.7 °F 30.05 in East 9.0 mph 15.0 mph 52 % 0.00 in 868 W/m2
13:34 75.6 °F 56.7 °F 30.06 in East 8.0 mph 15.0 mph 52 % 0.00 in 867 W/m2
13:39 75.6 °F 56.2 °F 30.05 in ENE 8.0 mph 16.0 mph 51 % 0.00 in 865 W/m2
13:44 75.7 °F 56.9 °F 30.05 in ENE 8.0 mph 20.0 mph 52 % 0.00 in 860 W/m2
13:49 75.9 °F 56.5 °F 30.06 in East 9.0 mph 14.0 mph 51 % 0.00 in 856 W/m2
13:54 76.3 °F 56.8 °F 30.05 in East 7.0 mph 12.0 mph 51 % 0.00 in 853 W/m2
13:59 75.9 °F 55.9 °F 30.05 in ENE 9.0 mph 18.0 mph 50 % 0.00 in 853 W/m2
14:04 75.6 °F 55.6 °F 30.05 in East 9.0 mph 16.0 mph 50 % 0.00 in 846 W/m2
14:09 75.7 °F 55.8 °F 30.05 in ENE 7.0 mph 12.0 mph 50 % 0.00 in 844 W/m2
14:14 75.7 °F 55.8 °F 30.05 in East 10.0 mph 15.0 mph 50 % 0.00 in 846 W/m2
14:19 75.9 °F 56.5 °F 30.05 in ENE 8.0 mph 18.0 mph 51 % 0.00 in 842 W/m2
14:22 75.9 °F 55.9 °F 30.05 in ENE 10.0 mph 19.0 mph 50 % 0.00 in 826 W/m2
Delerius-Weather
Compliments of Weather Underground - 1.75 mb

Data updates at regular intervals.